sensor_id;sensor_type;location;lat;lon;timestamp;temperature;humidity
31731;DHT22;18310;55.586;12.286;2023-02-03T00:01:54;7.80;70.80
31731;DHT22;18310;55.586;12.286;2023-02-03T00:05:00;5.90;69.50
31731;DHT22;18310;55.586;12.286;2023-02-03T00:08:04;4.60;69.40
31731;DHT22;18310;55.586;12.286;2023-02-03T00:11:09;5.90;70.20
31731;DHT22;18310;55.586;12.286;2023-02-03T00:14:13;4.30;69.40
31731;DHT22;18310;55.586;12.286;2023-02-03T00:17:18;6.00;70.50
31731;DHT22;18310;55.586;12.286;2023-02-03T00:20:23;5.90;70.70
31731;DHT22;18310;55.586;12.286;2023-02-03T00:23:27;4.20;70.00
31731;DHT22;18310;55.586;12.286;2023-02-03T00:26:42;5.90;70.90
31731;DHT22;18310;55.586;12.286;2023-02-03T00:29:50;5.90;71.50
31731;DHT22;18310;55.586;12.286;2023-02-03T00:32:54;7.00;72.10
31731;DHT22;18310;55.586;12.286;2023-02-03T00:36:03;6.50;72.00
31731;DHT22;18310;55.586;12.286;2023-02-03T00:39:08;5.80;71.60
31731;DHT22;18310;55.586;12.286;2023-02-03T00:42:12;5.80;71.80
31731;DHT22;18310;55.586;12.286;2023-02-03T00:45:19;5.70;72.10
31731;DHT22;18310;55.586;12.286;2023-02-03T00:48:22;6.00;72.80
31731;DHT22;18310;55.586;12.286;2023-02-03T00:51:27;5.60;72.70
31731;DHT22;18310;55.586;12.286;2023-02-03T00:54:31;5.60;73.00
31731;DHT22;18310;55.586;12.286;2023-02-03T00:57:35;5.60;72.60
31731;DHT22;18310;55.586;12.286;2023-02-03T01:00:38;5.60;73.30
31731;DHT22;18310;55.586;12.286;2023-02-03T01:03:42;5.60;73.40
31731;DHT22;18310;55.586;12.286;2023-02-03T01:06:47;8.00;74.90
31731;DHT22;18310;55.586;12.286;2023-02-03T01:09:51;5.60;73.60
31731;DHT22;18310;55.586;12.286;2023-02-03T01:12:58;5.60;73.70
31731;DHT22;18310;55.586;12.286;2023-02-03T01:16:06;6.90;74.70
31731;DHT22;18310;55.586;12.286;2023-02-03T01:19:10;5.60;74.50
31731;DHT22;18310;55.586;12.286;2023-02-03T01:22:17;5.60;73.90
31731;DHT22;18310;55.586;12.286;2023-02-03T01:25:21;5.60;74.20
31731;DHT22;18310;55.586;12.286;2023-02-03T01:28:25;5.70;74.50
31731;DHT22;18310;55.586;12.286;2023-02-03T01:43:50;5.60;74.20
31731;DHT22;18310;55.586;12.286;2023-02-03T01:46:55;5.60;74.90
31731;DHT22;18310;55.586;12.286;2023-02-03T01:50:05;3.70;73.90
31731;DHT22;18310;55.586;12.286;2023-02-03T01:53:15;5.60;75.10
31731;DHT22;18310;55.586;12.286;2023-02-03T01:56:19;5.60;75.00
31731;DHT22;18310;55.586;12.286;2023-02-03T01:59:24;5.60;75.20
31731;DHT22;18310;55.586;12.286;2023-02-03T02:02:28;5.50;75.30
31731;DHT22;18310;55.586;12.286;2023-02-03T02:05:33;5.50;75.00
31731;DHT22;18310;55.586;12.286;2023-02-03T02:08:42;7.90;78.00
31731;DHT22;18310;55.586;12.286;2023-02-03T02:11:48;5.60;75.70
31731;DHT22;18310;55.586;12.286;2023-02-03T02:14:51;6.00;75.60
31731;DHT22;18310;55.586;12.286;2023-02-03T02:18:17;5.60;75.40
31731;DHT22;18310;55.586;12.286;2023-02-03T02:21:49;4.70;75.40
31731;DHT22;18310;55.586;12.286;2023-02-03T02:25:32;5.50;76.10
31731;DHT22;18310;55.586;12.286;2023-02-03T02:29:02;7.20;77.10
31731;DHT22;18310;55.586;12.286;2023-02-03T02:32:29;5.40;75.90
31731;DHT22;18310;55.586;12.286;2023-02-03T02:35:56;5.30;75.80
31731;DHT22;18310;55.586;12.286;2023-02-03T02:39:11;5.30;75.80
31731;DHT22;18310;55.586;12.286;2023-02-03T02:42:21;5.20;75.60
31731;DHT22;18310;55.586;12.286;2023-02-03T02:45:37;5.20;75.90
31731;DHT22;18310;55.586;12.286;2023-02-03T02:48:53;7.10;77.00
31731;DHT22;18310;55.586;12.286;2023-02-03T02:52:03;5.10;76.00
31731;DHT22;18310;55.586;12.286;2023-02-03T02:55:13;5.10;75.90
31731;DHT22;18310;55.586;12.286;2023-02-03T02:58:19;5.00;75.80
31731;DHT22;18310;55.586;12.286;2023-02-03T03:01:23;5.00;75.70
31731;DHT22;18310;55.586;12.286;2023-02-03T03:04:31;4.90;75.70
31731;DHT22;18310;55.586;12.286;2023-02-03T03:07:41;6.70;76.80
31731;DHT22;18310;55.586;12.286;2023-02-03T03:10:50;4.80;76.30
31731;DHT22;18310;55.586;12.286;2023-02-03T03:13:55;4.80;76.40
31731;DHT22;18310;55.586;12.286;2023-02-03T03:20:11;4.90;75.60
31731;DHT22;18310;55.586;12.286;2023-02-03T03:23:19;4.70;77.20
31731;DHT22;18310;55.586;12.286;2023-02-03T03:26:29;4.80;76.90
31731;DHT22;18310;55.586;12.286;2023-02-03T03:29:39;4.80;76.90
31731;DHT22;18310;55.586;12.286;2023-02-03T03:32:45;4.80;77.40
31731;DHT22;18310;55.586;12.286;2023-02-03T03:39:03;5.70;77.60
31731;DHT22;18310;55.586;12.286;2023-02-03T03:45:25;4.90;78.20
31731;DHT22;18310;55.586;12.286;2023-02-03T03:48:34;5.00;77.00
31731;DHT22;18310;55.586;12.286;2023-02-03T03:51:47;4.90;77.70
31731;DHT22;18310;55.586;12.286;2023-02-03T03:54:53;4.90;77.80
31731;DHT22;18310;55.586;12.286;2023-02-03T03:58:02;4.90;78.10
31731;DHT22;18310;55.586;12.286;2023-02-03T04:01:07;5.10;78.20
31731;DHT22;18310;55.586;12.286;2023-02-03T04:04:11;5.00;77.80
31731;DHT22;18310;55.586;12.286;2023-02-03T04:07:19;5.00;78.10
31731;DHT22;18310;55.586;12.286;2023-02-03T04:10:25;5.60;78.10
31731;DHT22;18310;55.586;12.286;2023-02-03T04:13:32;5.20;78.60
31731;DHT22;18310;55.586;12.286;2023-02-03T04:16:35;5.30;77.60
31731;DHT22;18310;55.586;12.286;2023-02-03T04:19:38;5.20;78.30
31731;DHT22;18310;55.586;12.286;2023-02-03T04:25:47;5.30;78.00
31731;DHT22;18310;55.586;12.286;2023-02-03T04:28:50;5.30;78.40
31731;DHT22;18310;55.586;12.286;2023-02-03T04:34:57;5.70;78.80
31731;DHT22;18310;55.586;12.286;2023-02-03T04:38:01;5.60;77.90
31731;DHT22;18310;55.586;12.286;2023-02-03T04:41:04;5.60;78.40
31731;DHT22;18310;55.586;12.286;2023-02-03T04:44:08;5.70;78.30
31731;DHT22;18310;55.586;12.286;2023-02-03T04:47:12;5.70;78.30
31731;DHT22;18310;55.586;12.286;2023-02-03T04:50:15;5.80;78.90
31731;DHT22;18310;55.586;12.286;2023-02-03T04:53:19;5.80;78.20
31731;DHT22;18310;55.586;12.286;2023-02-03T04:56:23;5.90;78.20
31731;DHT22;18310;55.586;12.286;2023-02-03T04:59:26;5.90;78.10
31731;DHT22;18310;55.586;12.286;2023-02-03T05:02:29;6.00;77.80
31731;DHT22;18310;55.586;12.286;2023-02-03T05:05:32;7.20;78.70
31731;DHT22;18310;55.586;12.286;2023-02-03T05:08:37;7.40;78.70
31731;DHT22;18310;55.586;12.286;2023-02-03T05:11:40;6.20;78.10
31731;DHT22;18310;55.586;12.286;2023-02-03T05:14:43;7.40;78.60
31731;DHT22;18310;55.586;12.286;2023-02-03T05:17:46;4.40;76.80
31731;DHT22;18310;55.586;12.286;2023-02-03T05:20:49;7.30;78.40
31731;DHT22;18310;55.586;12.286;2023-02-03T05:23:54;8.40;78.90
31731;DHT22;18310;55.586;12.286;2023-02-03T05:26:57;6.40;77.70
31731;DHT22;18310;55.586;12.286;2023-02-03T05:30:00;6.50;77.70
31731;DHT22;18310;55.586;12.286;2023-02-03T05:33:03;6.50;77.80
31731;DHT22;18310;55.586;12.286;2023-02-03T05:36:07;6.50;77.70
31731;DHT22;18310;55.586;12.286;2023-02-03T05:39:14;6.80;77.90
31731;DHT22;18310;55.586;12.286;2023-02-03T05:42:17;6.60;77.90
31731;DHT22;18310;55.586;12.286;2023-02-03T05:45:20;6.50;77.70
31731;DHT22;18310;55.586;12.286;2023-02-03T05:48:23;6.70;77.80
31731;DHT22;18310;55.586;12.286;2023-02-03T05:51:26;6.80;77.90
31731;DHT22;18310;55.586;12.286;2023-02-03T05:54:31;6.80;78.00
31731;DHT22;18310;55.586;12.286;2023-02-03T05:57:34;6.90;78.10
31731;DHT22;18310;55.586;12.286;2023-02-03T06:00:37;6.90;78.20
31731;DHT22;18310;55.586;12.286;2023-02-03T06:03:40;7.00;78.40
31731;DHT22;18310;55.586;12.286;2023-02-03T06:06:46;7.10;78.70
31731;DHT22;18310;55.586;12.286;2023-02-03T06:09:51;7.20;78.80
31731;DHT22;18310;55.586;12.286;2023-02-03T06:12:54;9.60;80.40
31731;DHT22;18310;55.586;12.286;2023-02-03T06:15:57;6.10;78.40
31731;DHT22;18310;55.586;12.286;2023-02-03T06:19:00;7.70;79.40
31731;DHT22;18310;55.586;12.286;2023-02-03T06:22:04;7.60;79.50
31731;DHT22;18310;55.586;12.286;2023-02-03T06:25:09;7.70;79.70
31731;DHT22;18310;55.586;12.286;2023-02-03T06:28:15;6.80;79.40
31731;DHT22;18310;55.586;12.286;2023-02-03T06:31:18;8.00;79.80
31731;DHT22;18310;55.586;12.286;2023-02-03T06:34:21;8.10;80.10
31731;DHT22;18310;55.586;12.286;2023-02-03T06:37:24;8.20;80.10
31731;DHT22;18310;55.586;12.286;2023-02-03T06:40:29;8.30;80.00
31731;DHT22;18310;55.586;12.286;2023-02-03T06:43:32;8.40;80.10
31731;DHT22;18310;55.586;12.286;2023-02-03T06:46:36;8.60;80.00
31731;DHT22;18310;55.586;12.286;2023-02-03T06:49:39;10.30;80.90
31731;DHT22;18310;55.586;12.286;2023-02-03T06:52:42;8.80;80.00
31731;DHT22;18310;55.586;12.286;2023-02-03T06:55:47;8.80;79.80
31731;DHT22;18310;55.586;12.286;2023-02-03T06:58:50;8.90;79.90
31731;DHT22;18310;55.586;12.286;2023-02-03T07:01:53;9.00;79.70
31731;DHT22;18310;55.586;12.286;2023-02-03T07:04:57;9.00;80.20
31731;DHT22;18310;55.586;12.286;2023-02-03T07:08:00;10.40;80.40
31731;DHT22;18310;55.586;12.286;2023-02-03T07:11:05;9.20;79.70
31731;DHT22;18310;55.586;12.286;2023-02-03T07:14:09;9.90;80.20
31731;DHT22;18310;55.586;12.286;2023-02-03T07:17:12;9.20;79.40
31731;DHT22;18310;55.586;12.286;2023-02-03T07:20:15;9.30;79.70
31731;DHT22;18310;55.586;12.286;2023-02-03T07:23:19;9.40;79.70
31731;DHT22;18310;55.586;12.286;2023-02-03T07:26:23;9.50;79.70
31731;DHT22;18310;55.586;12.286;2023-02-03T07:29:27;9.50;79.60
31731;DHT22;18310;55.586;12.286;2023-02-03T07:32:30;9.50;79.50
31731;DHT22;18310;55.586;12.286;2023-02-03T07:35:34;9.60;79.40
31731;DHT22;18310;55.586;12.286;2023-02-03T07:38:37;11.00;81.30
31731;DHT22;18310;55.586;12.286;2023-02-03T07:41:41;9.70;79.10
31731;DHT22;18310;55.586;12.286;2023-02-03T07:44:44;9.70;79.10
31731;DHT22;18310;55.586;12.286;2023-02-03T07:47:47;9.70;78.90
31731;DHT22;18310;55.586;12.286;2023-02-03T07:50:51;9.80;78.80
31731;DHT22;18310;55.586;12.286;2023-02-03T07:53:55;9.80;78.70
31731;DHT22;18310;55.586;12.286;2023-02-03T07:57:00;8.90;78.10
31731;DHT22;18310;55.586;12.286;2023-02-03T08:00:04;9.90;78.40
31731;DHT22;18310;55.586;12.286;2023-02-03T08:03:07;9.90;78.20
31731;DHT22;18310;55.586;12.286;2023-02-03T08:06:10;9.90;78.60
31731;DHT22;18310;55.586;12.286;2023-02-03T08:09:13;9.90;77.70
31731;DHT22;18310;55.586;12.286;2023-02-03T08:12:18;9.90;77.50
31731;DHT22;18310;55.586;12.286;2023-02-03T08:15:21;9.60;77.30
31731;DHT22;18310;55.586;12.286;2023-02-03T08:18:25;9.90;77.40
31731;DHT22;18310;55.586;12.286;2023-02-03T08:21:28;10.00;77.50
31731;DHT22;18310;55.586;12.286;2023-02-03T08:24:32;10.00;77.40
31731;DHT22;18310;55.586;12.286;2023-02-03T08:27:37;10.00;77.50
31731;DHT22;18310;55.586;12.286;2023-02-03T08:30:41;10.00;77.40
31731;DHT22;18310;55.586;12.286;2023-02-03T08:33:44;10.10;76.90
31731;DHT22;18310;55.586;12.286;2023-02-03T08:36:48;9.20;76.80
31731;DHT22;18310;55.586;12.286;2023-02-03T08:39:52;10.10;77.20
31731;DHT22;18310;55.586;12.286;2023-02-03T08:42:56;10.10;77.00
31731;DHT22;18310;55.586;12.286;2023-02-03T08:46:02;10.00;76.70
31731;DHT22;18310;55.586;12.286;2023-02-03T08:49:05;10.20;76.50
31731;DHT22;18310;55.586;12.286;2023-02-03T08:52:10;10.20;76.10
31731;DHT22;18310;55.586;12.286;2023-02-03T08:55:14;10.20;75.80
31731;DHT22;18310;55.586;12.286;2023-02-03T08:58:19;10.20;75.60
31731;DHT22;18310;55.586;12.286;2023-02-03T09:01:22;10.20;75.60
31731;DHT22;18310;55.586;12.286;2023-02-03T09:04:25;9.60;75.30
31731;DHT22;18310;55.586;12.286;2023-02-03T09:07:28;10.10;75.10
31731;DHT22;18310;55.586;12.286;2023-02-03T09:10:31;11.60;75.60
31731;DHT22;18310;55.586;12.286;2023-02-03T09:13:35;10.40;74.70
31731;DHT22;18310;55.586;12.286;2023-02-03T09:16:40;10.40;74.20
31731;DHT22;18310;55.586;12.286;2023-02-03T09:19:44;10.40;73.90
31731;DHT22;18310;55.586;12.286;2023-02-03T09:22:47;10.40;73.60
31731;DHT22;18310;55.586;12.286;2023-02-03T09:25:50;11.10;74.00
31731;DHT22;18310;55.586;12.286;2023-02-03T09:28:54;10.30;73.50
31731;DHT22;18310;55.586;12.286;2023-02-03T09:31:59;10.30;72.90
31731;DHT22;18310;55.586;12.286;2023-02-03T09:35:07;11.00;73.50
31731;DHT22;18310;55.586;12.286;2023-02-03T09:38:11;10.30;72.50
31731;DHT22;18310;55.586;12.286;2023-02-03T09:41:21;10.30;72.10
31731;DHT22;18310;55.586;12.286;2023-02-03T09:44:40;10.30;71.90
31731;DHT22;18310;55.586;12.286;2023-02-03T09:47:47;10.30;71.60
31731;DHT22;18310;55.586;12.286;2023-02-03T09:50:55;10.30;71.40
31731;DHT22;18310;55.586;12.286;2023-02-03T09:54:01;10.20;71.30
31731;DHT22;18310;55.586;12.286;2023-02-03T09:57:13;10.20;70.70
31731;DHT22;18310;55.586;12.286;2023-02-03T10:00:26;10.30;70.90
31731;DHT22;18310;55.586;12.286;2023-02-03T10:03:37;10.30;70.80
31731;DHT22;18310;55.586;12.286;2023-02-03T10:06:46;12.40;71.90
31731;DHT22;18310;55.586;12.286;2023-02-03T10:09:56;10.20;70.40
31731;DHT22;18310;55.586;12.286;2023-02-03T10:13:14;10.20;69.60
31731;DHT22;18310;55.586;12.286;2023-02-03T10:16:37;10.30;70.30
31731;DHT22;18310;55.586;12.286;2023-02-03T10:19:53;10.30;69.80
31731;DHT22;18310;55.586;12.286;2023-02-03T10:23:03;12.20;70.70
31731;DHT22;18310;55.586;12.286;2023-02-03T10:26:15;10.40;69.90
31731;DHT22;18310;55.586;12.286;2023-02-03T10:29:27;10.40;69.70
31731;DHT22;18310;55.586;12.286;2023-02-03T10:32:35;10.40;70.30
31731;DHT22;18310;55.586;12.286;2023-02-03T10:35:47;10.50;69.50
31731;DHT22;18310;55.586;12.286;2023-02-03T10:38:58;10.50;68.20
31731;DHT22;18310;55.586;12.286;2023-02-03T10:42:07;9.60;68.60
31731;DHT22;18310;55.586;12.286;2023-02-03T10:45:13;10.50;69.20
31731;DHT22;18310;55.586;12.286;2023-02-03T10:48:18;10.60;69.30
31731;DHT22;18310;55.586;12.286;2023-02-03T10:51:23;10.50;69.00
31731;DHT22;18310;55.586;12.286;2023-02-03T10:54:29;12.20;70.00
31731;DHT22;18310;55.586;12.286;2023-02-03T10:57:35;9.30;68.60
31731;DHT22;18310;55.586;12.286;2023-02-03T11:00:40;10.40;69.50
31731;DHT22;18310;55.586;12.286;2023-02-03T11:03:53;10.40;69.70
31731;DHT22;18310;55.586;12.286;2023-02-03T11:07:02;10.30;69.80
31731;DHT22;18310;55.586;12.286;2023-02-03T11:10:31;10.30;70.00
31731;DHT22;18310;55.586;12.286;2023-02-03T11:13:36;10.30;70.10
31731;DHT22;18310;55.586;12.286;2023-02-03T11:16:43;10.20;70.00
31731;DHT22;18310;55.586;12.286;2023-02-03T11:19:51;10.10;70.10
31731;DHT22;18310;55.586;12.286;2023-02-03T11:22:56;10.20;70.20
31731;DHT22;18310;55.586;12.286;2023-02-03T11:26:08;10.10;70.20
31731;DHT22;18310;55.586;12.286;2023-02-03T11:29:17;10.00;70.20
31731;DHT22;18310;55.586;12.286;2023-02-03T11:32:31;10.00;70.50
31731;DHT22;18310;55.586;12.286;2023-02-03T11:35:39;9.90;70.80
31731;DHT22;18310;55.586;12.286;2023-02-03T11:39:15;8.90;70.70
31731;DHT22;18310;55.586;12.286;2023-02-03T11:42:21;9.80;72.30
31731;DHT22;18310;55.586;12.286;2023-02-03T11:45:26;8.90;71.40
31731;DHT22;18310;55.586;12.286;2023-02-03T11:48:35;10.00;71.70
31731;DHT22;18310;55.586;12.286;2023-02-03T11:51:46;9.40;70.20
31731;DHT22;18310;55.586;12.286;2023-02-03T11:55:04;9.80;69.20
31731;DHT22;18310;55.586;12.286;2023-02-03T12:02:32;9.10;69.20
31731;DHT22;18310;55.586;12.286;2023-02-03T12:06:15;9.00;69.00
31731;DHT22;18310;55.586;12.286;2023-02-03T12:09:41;10.60;69.50
31731;DHT22;18310;55.586;12.286;2023-02-03T12:12:58;8.90;68.20
31731;DHT22;18310;55.586;12.286;2023-02-03T12:16:40;8.80;68.30
31731;DHT22;18310;55.586;12.286;2023-02-03T12:20:05;8.80;67.70
31731;DHT22;18310;55.586;12.286;2023-02-03T12:23:32;9.90;69.00
31731;DHT22;18310;55.586;12.286;2023-02-03T12:26:58;7.50;67.30
31731;DHT22;18310;55.586;12.286;2023-02-03T12:30:14;8.80;68.50
31731;DHT22;18310;55.586;12.286;2023-02-03T12:33:26;8.70;68.80
31731;DHT22;18310;55.586;12.286;2023-02-03T12:36:38;8.70;69.30
31731;DHT22;18310;55.586;12.286;2023-02-03T12:39:45;8.70;69.80
31731;DHT22;18310;55.586;12.286;2023-02-03T12:42:56;8.70;70.20
31731;DHT22;18310;55.586;12.286;2023-02-03T12:46:21;8.70;70.40
31731;DHT22;18310;55.586;12.286;2023-02-03T12:49:33;8.60;70.70
31731;DHT22;18310;55.586;12.286;2023-02-03T12:52:44;7.50;69.50
31731;DHT22;18310;55.586;12.286;2023-02-03T12:55:55;8.60;69.20
31731;DHT22;18310;55.586;12.286;2023-02-03T12:59:08;8.60;69.10
31731;DHT22;18310;55.586;12.286;2023-02-03T13:02:23;8.50;68.40
31731;DHT22;18310;55.586;12.286;2023-02-03T13:05:35;8.40;67.90
31731;DHT22;18310;55.586;12.286;2023-02-03T13:08:49;8.30;67.80
31731;DHT22;18310;55.586;12.286;2023-02-03T13:12:02;8.30;68.50
31731;DHT22;18310;55.586;12.286;2023-02-03T13:15:19;8.10;68.50
31731;DHT22;18310;55.586;12.286;2023-02-03T13:18:28;8.10;68.60
31731;DHT22;18310;55.586;12.286;2023-02-03T13:21:35;8.00;68.40
31731;DHT22;18310;55.586;12.286;2023-02-03T13:24:39;8.00;67.90
31731;DHT22;18310;55.586;12.286;2023-02-03T13:27:50;7.90;67.60
31731;DHT22;18310;55.586;12.286;2023-02-03T13:31:18;7.80;67.90
31731;DHT22;18310;55.586;12.286;2023-02-03T13:34:51;7.50;68.00
31731;DHT22;18310;55.586;12.286;2023-02-03T13:38:21;9.20;69.60
31731;DHT22;18310;55.586;12.286;2023-02-03T13:41:44;7.50;68.80
31731;DHT22;18310;55.586;12.286;2023-02-03T13:44:53;7.40;69.10
31731;DHT22;18310;55.586;12.286;2023-02-03T13:48:08;7.40;69.30
31731;DHT22;18310;55.586;12.286;2023-02-03T13:51:18;7.30;69.70
31731;DHT22;18310;55.586;12.286;2023-02-03T13:54:27;7.30;69.90
31731;DHT22;18310;55.586;12.286;2023-02-03T13:57:34;7.30;69.50
31731;DHT22;18310;55.586;12.286;2023-02-03T14:01:02;8.40;70.20
31731;DHT22;18310;55.586;12.286;2023-02-03T14:07:54;7.10;69.80
31731;DHT22;18310;55.586;12.286;2023-02-03T14:14:44;7.10;69.70
31731;DHT22;18310;55.586;12.286;2023-02-03T14:18:29;7.00;69.70
31731;DHT22;18310;55.586;12.286;2023-02-03T14:21:41;7.00;69.50
31731;DHT22;18310;55.586;12.286;2023-02-03T14:24:51;7.00;69.60
31731;DHT22;18310;55.586;12.286;2023-02-03T14:27:59;6.90;69.50
31731;DHT22;18310;55.586;12.286;2023-02-03T14:31:10;6.60;69.60
31731;DHT22;18310;55.586;12.286;2023-02-03T14:34:19;6.80;69.90
31731;DHT22;18310;55.586;12.286;2023-02-03T14:37:34;6.80;69.80
31731;DHT22;18310;55.586;12.286;2023-02-03T14:40:41;6.80;69.10
31731;DHT22;18310;55.586;12.286;2023-02-03T14:43:57;6.80;69.20
31731;DHT22;18310;55.586;12.286;2023-02-03T14:47:16;6.10;69.00
31731;DHT22;18310;55.586;12.286;2023-02-03T14:50:42;6.80;69.50
31731;DHT22;18310;55.586;12.286;2023-02-03T14:54:06;6.80;69.70
31731;DHT22;18310;55.586;12.286;2023-02-03T14:57:29;6.80;69.70
31731;DHT22;18310;55.586;12.286;2023-02-03T15:00:39;6.80;69.80
31731;DHT22;18310;55.586;12.286;2023-02-03T15:04:21;6.80;69.70
31731;DHT22;18310;55.586;12.286;2023-02-03T15:07:35;6.90;69.90
31731;DHT22;18310;55.586;12.286;2023-02-03T15:10:46;6.80;69.80
31731;DHT22;18310;55.586;12.286;2023-02-03T15:13:50;6.80;69.90
31731;DHT22;18310;55.586;12.286;2023-02-03T15:16:56;6.80;70.10
31731;DHT22;18310;55.586;12.286;2023-02-03T15:20:25;7.00;70.50
31731;DHT22;18310;55.586;12.286;2023-02-03T15:23:37;6.80;70.30
31731;DHT22;18310;55.586;12.286;2023-02-03T15:26:46;7.20;70.40
31731;DHT22;18310;55.586;12.286;2023-02-03T15:29:51;6.80;70.10
31731;DHT22;18310;55.586;12.286;2023-02-03T15:33:00;6.70;70.10
31731;DHT22;18310;55.586;12.286;2023-02-03T15:36:14;6.70;70.20
31731;DHT22;18310;55.586;12.286;2023-02-03T15:39:35;6.70;70.20
31731;DHT22;18310;55.586;12.286;2023-02-03T15:42:51;5.60;69.50
31731;DHT22;18310;55.586;12.286;2023-02-03T15:46:17;6.70;70.50
31731;DHT22;18310;55.586;12.286;2023-02-03T15:49:57;6.70;70.70
31731;DHT22;18310;55.586;12.286;2023-02-03T15:53:13;6.70;70.80
31731;DHT22;18310;55.586;12.286;2023-02-03T15:56:29;8.50;71.90
31731;DHT22;18310;55.586;12.286;2023-02-03T15:59:42;6.70;71.40
31731;DHT22;18310;55.586;12.286;2023-02-03T16:02:48;6.90;71.50
31731;DHT22;18310;55.586;12.286;2023-02-03T16:05:52;5.60;70.80
31731;DHT22;18310;55.586;12.286;2023-02-03T16:08:57;5.00;70.80
31731;DHT22;18310;55.586;12.286;2023-02-03T16:15:26;6.50;72.20
31731;DHT22;18310;55.586;12.286;2023-02-03T16:18:32;6.50;72.60
31731;DHT22;18310;55.586;12.286;2023-02-03T16:21:51;6.40;72.20
31731;DHT22;18310;55.586;12.286;2023-02-03T16:24:56;6.40;73.40
31731;DHT22;18310;55.586;12.286;2023-02-03T16:28:15;6.30;72.70
31731;DHT22;18310;55.586;12.286;2023-02-03T16:31:43;6.30;72.90
31731;DHT22;18310;55.586;12.286;2023-02-03T16:35:08;7.20;74.00
31731;DHT22;18310;55.586;12.286;2023-02-03T16:38:31;6.20;73.30
31731;DHT22;18310;55.586;12.286;2023-02-03T16:41:54;6.10;72.80
31731;DHT22;18310;55.586;12.286;2023-02-03T16:45:17;6.00;72.60
31731;DHT22;18310;55.586;12.286;2023-02-03T16:48:40;6.00;72.70
31731;DHT22;18310;55.586;12.286;2023-02-03T16:52:03;5.90;72.80
31731;DHT22;18310;55.586;12.286;2023-02-03T16:55:09;5.80;73.00
31731;DHT22;18310;55.586;12.286;2023-02-03T16:58:15;5.50;72.80
31731;DHT22;18310;55.586;12.286;2023-02-03T17:01:19;5.80;73.10
31731;DHT22;18310;55.586;12.286;2023-02-03T17:04:25;6.20;73.30
31731;DHT22;18310;55.586;12.286;2023-02-03T17:07:28;6.00;73.30
31731;DHT22;18310;55.586;12.286;2023-02-03T17:10:32;5.00;72.80
31731;DHT22;18310;55.586;12.286;2023-02-03T17:13:36;5.60;73.40
31731;DHT22;18310;55.586;12.286;2023-02-03T17:16:40;5.60;73.50
31731;DHT22;18310;55.586;12.286;2023-02-03T17:19:45;5.60;73.70
31731;DHT22;18310;55.586;12.286;2023-02-03T17:22:49;7.40;74.80
31731;DHT22;18310;55.586;12.286;2023-02-03T17:25:55;5.60;73.80
31731;DHT22;18310;55.586;12.286;2023-02-03T17:28:58;5.60;73.80
31731;DHT22;18310;55.586;12.286;2023-02-03T17:32:04;5.60;73.90
31731;DHT22;18310;55.586;12.286;2023-02-03T17:35:09;5.60;73.70
31731;DHT22;18310;55.586;12.286;2023-02-03T17:38:13;5.80;74.00
31731;DHT22;18310;55.586;12.286;2023-02-03T17:41:18;6.40;74.10
31731;DHT22;18310;55.586;12.286;2023-02-03T17:44:41;5.60;73.60
31731;DHT22;18310;55.586;12.286;2023-02-03T17:48:01;5.60;73.50
31731;DHT22;18310;55.586;12.286;2023-02-03T17:51:24;5.60;73.50
31731;DHT22;18310;55.586;12.286;2023-02-03T17:54:48;6.60;74.20
31731;DHT22;18310;55.586;12.286;2023-02-03T17:57:51;4.50;72.90
31731;DHT22;18310;55.586;12.286;2023-02-03T18:00:54;6.20;73.90
31731;DHT22;18310;55.586;12.286;2023-02-03T18:03:59;5.60;73.60
31731;DHT22;18310;55.586;12.286;2023-02-03T18:07:05;5.60;73.60
31731;DHT22;18310;55.586;12.286;2023-02-03T18:10:09;5.60;73.60
31731;DHT22;18310;55.586;12.286;2023-02-03T18:13:14;5.70;73.50
31731;DHT22;18310;55.586;12.286;2023-02-03T18:16:22;5.70;73.60
31731;DHT22;18310;55.586;12.286;2023-02-03T18:19:27;5.70;73.50
31731;DHT22;18310;55.586;12.286;2023-02-03T18:22:32;5.70;73.40
31731;DHT22;18310;55.586;12.286;2023-02-03T18:25:36;5.70;73.30
31731;DHT22;18310;55.586;12.286;2023-02-03T18:28:39;5.70;73.10
31731;DHT22;18310;55.586;12.286;2023-02-03T18:31:43;5.80;73.10
31731;DHT22;18310;55.586;12.286;2023-02-03T18:34:46;6.10;73.20
31731;DHT22;18310;55.586;12.286;2023-02-03T18:37:51;5.80;73.00
31731;DHT22;18310;55.586;12.286;2023-02-03T18:40:55;5.80;72.80
31731;DHT22;18310;55.586;12.286;2023-02-03T18:43:58;5.80;73.00
31731;DHT22;18310;55.586;12.286;2023-02-03T18:47:03;7.30;73.50
31731;DHT22;18310;55.586;12.286;2023-02-03T18:50:08;5.80;72.50
31731;DHT22;18310;55.586;12.286;2023-02-03T18:53:13;7.30;73.30
31731;DHT22;18310;55.586;12.286;2023-02-03T18:56:18;7.40;73.30
31731;DHT22;18310;55.586;12.286;2023-02-03T18:59:23;5.80;72.20
31731;DHT22;18310;55.586;12.286;2023-02-03T19:02:27;5.80;72.10
31731;DHT22;18310;55.586;12.286;2023-02-03T19:05:30;5.80;72.00
31731;DHT22;18310;55.586;12.286;2023-02-03T19:08:37;5.80;72.00
31731;DHT22;18310;55.586;12.286;2023-02-03T19:11:40;5.80;71.90
31731;DHT22;18310;55.586;12.286;2023-02-03T19:14:45;6.70;72.40
31731;DHT22;18310;55.586;12.286;2023-02-03T19:17:48;5.70;71.70
31731;DHT22;18310;55.586;12.286;2023-02-03T19:20:51;5.80;71.80
31731;DHT22;18310;55.586;12.286;2023-02-03T19:23:55;5.80;71.70
31731;DHT22;18310;55.586;12.286;2023-02-03T19:26:59;5.80;71.60
31731;DHT22;18310;55.586;12.286;2023-02-03T19:30:04;5.80;71.60
31731;DHT22;18310;55.586;12.286;2023-02-03T19:33:07;5.80;71.50
31731;DHT22;18310;55.586;12.286;2023-02-03T19:36:11;5.80;71.30
31731;DHT22;18310;55.586;12.286;2023-02-03T19:39:16;5.80;71.40
31731;DHT22;18310;55.586;12.286;2023-02-03T19:42:21;7.20;71.90
31731;DHT22;18310;55.586;12.286;2023-02-03T19:45:24;6.80;71.70
31731;DHT22;18310;55.586;12.286;2023-02-03T19:48:28;5.80;71.10
31731;DHT22;18310;55.586;12.286;2023-02-03T19:51:31;5.70;70.90
31731;DHT22;18310;55.586;12.286;2023-02-03T19:54:37;5.70;70.90
31731;DHT22;18310;55.586;12.286;2023-02-03T19:57:40;5.90;71.00
31731;DHT22;18310;55.586;12.286;2023-02-03T20:00:43;5.70;71.00
31731;DHT22;18310;55.586;12.286;2023-02-03T20:03:46;5.70;70.90
31731;DHT22;18310;55.586;12.286;2023-02-03T20:06:49;5.60;70.80
31731;DHT22;18310;55.586;12.286;2023-02-03T20:09:54;5.60;70.80
31731;DHT22;18310;55.586;12.286;2023-02-03T20:12:57;5.60;70.80
31731;DHT22;18310;55.586;12.286;2023-02-03T20:16:01;5.60;70.80
31731;DHT22;18310;55.586;12.286;2023-02-03T20:19:04;5.50;70.20
31731;DHT22;18310;55.586;12.286;2023-02-03T20:22:08;5.60;70.80
31731;DHT22;18310;55.586;12.286;2023-02-03T20:25:12;4.50;70.20
31731;DHT22;18310;55.586;12.286;2023-02-03T20:28:16;5.60;70.70
31731;DHT22;18310;55.586;12.286;2023-02-03T20:31:20;5.50;70.70